Time;durP1;ratioP1;P1;durP2;ratioP2;P2;SDS_P1;SDS_P2;PMS_P1;PMS_P2;Temp;Humidity;BMP_temperature;BMP_pressure;BME280_temperature;BME280_humidity;BME280_pressure;Samples;Min_cycle;Max_cycle;Signal;HPM_P1;HPM_P2
2022/08/18 00:00:32;;;;;;;13.73;10.73;;;18.70;99.90;;;;;;4972904;28;20108;-69
2022/08/18 00:03:04;;;;;;;13.95;10.93;;;18.60;99.90;;;;;;4973418;28;20122;-69
2022/08/18 00:05:30;;;;;;;;;;;18.70;99.90;;;;;;4951508;28;20135;-69
2022/08/18 00:07:56;;;;;;;13.43;8.85;;;18.60;99.90;;;;;;4972323;28;19922;-68
2022/08/18 00:10:22;;;;;;;11.05;8.70;;;18.60;99.90;;;;;;4970603;28;20083;-69
2022/08/18 00:12:47;;;;;;;14.00;8.32;;;18.60;99.90;;;;;;4970603;28;20085;-68
2022/08/18 00:15:15;;;;;;;12.90;7.93;;;18.60;99.90;;;;;;4983721;28;20850;-69
2022/08/18 00:17:41;;;;;;;10.90;7.30;;;18.70;99.90;;;;;;4973568;28;20051;-68
2022/08/18 00:20:10;;;;;;;9.23;7.40;;;18.70;99.90;;;;;;4966597;28;20054;-69
2022/08/18 00:22:38;;;;;;;10.90;6.88;;;18.70;99.90;;;;;;4973378;28;20051;-69
2022/08/18 00:25:05;;;;;;;11.05;7.15;;;18.60;99.90;;;;;;4953813;28;20038;-68
2022/08/18 00:27:31;;;;;;;11.00;7.20;;;18.70;99.90;;;;;;4952831;28;20451;-68
2022/08/18 00:30:00;;;;;;;13.70;7.60;;;18.70;99.90;;;;;;4972030;28;20055;-69
2022/08/18 00:32:32;;;;;;;8.68;7.20;;;18.70;99.90;;;;;;4970790;28;20055;-68
2022/08/18 00:35:05;;;;;;;9.20;6.50;;;18.60;99.90;;;;;;4953698;28;20392;-69
2022/08/18 00:37:32;;;;;;;10.77;6.55;;;18.70;99.90;;;;;;4962449;28;20182;-69
2022/08/18 00:39:57;;;;;;;8.60;7.03;;;18.70;99.90;;;;;;4960141;28;20059;-69
2022/08/18 00:42:26;;;;;;;12.45;7.05;;;18.60;99.90;;;;;;4972293;28;20056;-68
2022/08/18 00:44:53;;;;;;;11.73;7.32;;;18.70;99.90;;;;;;4964925;28;20047;-69
2022/08/18 00:47:19;;;;;;;13.75;7.25;;;18.60;99.90;;;;;;4975521;28;20051;-69
2022/08/18 00:49:47;;;;;;;11.45;6.53;;;18.70;99.90;;;;;;4971809;28;20185;-68
2022/08/18 00:52:15;;;;;;;9.05;6.75;;;18.60;99.90;;;;;;4977247;28;20059;-69
2022/08/18 00:54:43;;;;;;;11.45;6.90;;;18.60;99.90;;;;;;4955295;28;20047;-68
2022/08/18 00:57:12;;;;;;;10.95;6.70;;;18.60;99.90;;;;;;4957184;29;20051;-68
2022/08/18 01:00:11;;;;;;;10.30;6.78;;;18.60;99.90;;;;;;4956330;28;20190;-69
2022/08/18 01:02:44;;;;;;;9.98;6.28;;;18.60;99.90;;;;;;4949436;28;20090;-68
2022/08/18 01:05:21;;;;;;;9.65;6.65;;;18.50;99.90;;;;;;4951751;28;20051;-69
2022/08/18 01:07:48;;;;;;;12.00;6.70;;;18.50;99.90;;;;;;4956972;29;20059;-69
2022/08/18 01:10:17;;;;;;;10.57;6.60;;;18.50;99.90;;;;;;4983833;28;20441;-68
2022/08/18 01:12:44;;;;;;;8.05;5.95;;;18.50;99.90;;;;;;4947090;28;20460;-68
2022/08/18 01:15:12;;;;;;;7.90;6.47;;;18.50;99.90;;;;;;4984839;28;20459;-69
2022/08/18 01:23:18;;;;;;;11.00;6.80;;;18.50;99.90;;;;;;4949236;28;20051;-69
2022/08/18 01:25:59;;;;;;;8.98;6.18;;;18.50;99.90;;;;;;4956184;29;20082;-68
2022/08/18 01:28:41;;;;;;;9.63;6.32;;;18.40;99.90;;;;;;4954415;28;20510;-68
2022/08/18 01:31:09;;;;;;;9.90;6.67;;;18.50;99.90;;;;;;4937519;29;20126;-68
2022/08/18 01:33:38;;;;;;;9.38;6.43;;;18.50;99.90;;;;;;4947218;28;20125;-68
2022/08/18 01:36:13;;;;;;;11.27;6.90;;;18.50;99.90;;;;;;4951648;29;20102;-68
2022/08/18 01:38:39;;;;;;;12.45;6.57;;;18.50;99.90;;;;;;4977070;28;20043;-68
2022/08/18 01:41:06;;;;;;;10.88;7.78;;;18.50;99.90;;;;;;4948771;28;20082;-68
2022/08/18 01:43:33;;;;;;;10.00;6.97;;;18.50;99.90;;;;;;4940070;28;20075;-68
2022/08/18 01:46:00;;;;;;;10.95;7.55;;;18.50;99.90;;;;;;4954637;28;20051;-68
2022/08/18 01:48:31;;;;;;;11.23;7.63;;;18.50;99.90;;;;;;4954467;28;20075;-68
2022/08/18 01:50:58;;;;;;;11.27;7.20;;;18.50;99.90;;;;;;4953153;28;20047;-68
2022/08/18 01:53:24;;;;;;;14.27;8.07;;;18.50;99.90;;;;;;4987123;28;20047;-68
2022/08/18 01:55:49;;;;;;;12.52;7.93;;;18.50;99.90;;;;;;4973059;28;20058;-68
2022/08/18 01:58:15;;;;;;;10.50;7.72;;;18.50;99.90;;;;;;4988736;28;20088;-68
2022/08/18 02:00:40;;;;;;;13.05;8.35;;;18.50;99.90;;;;;;4974713;28;20105;-68
2022/08/18 02:03:10;;;;;;;14.13;8.80;;;18.50;99.90;;;;;;4974469;28;20109;-68
2022/08/18 02:05:43;;;;;;;10.95;7.97;;;18.50;99.90;;;;;;4971216;28;20058;-68
2022/08/18 02:08:11;;;;;;;15.25;9.13;;;18.50;99.90;;;;;;4973257;28;20058;-69
2022/08/18 02:10:38;;;;;;;12.73;8.43;;;18.50;99.90;;;;;;4974574;28;20424;-68
2022/08/18 02:13:03;;;;;;;15.38;8.10;;;18.50;99.90;;;;;;4973726;28;20059;-68
2022/08/18 02:15:30;;;;;;;12.82;9.10;;;18.50;99.90;;;;;;4973345;28;20050;-68
2022/08/18 02:17:55;;;;;;;14.07;8.63;;;18.50;99.90;;;;;;4942033;29;20047;-68
2022/08/18 02:20:21;;;;;;;15.27;9.70;;;18.50;99.90;;;;;;4973779;28;20047;-68
2022/08/18 02:22:48;;;;;;;11.80;8.85;;;18.50;99.90;;;;;;4968056;28;20062;-68
2022/08/18 02:25:16;;;;;;;12.50;9.18;;;18.50;99.90;;;;;;4970807;28;20130;-68
2022/08/18 02:27:42;;;;;;;16.13;9.93;;;18.50;99.90;;;;;;4989131;28;20468;-68
2022/08/18 02:30:12;;;;;;;17.63;10.13;;;18.50;99.90;;;;;;4974375;28;20121;-68
2022/08/18 02:32:38;;;;;;;21.55;10.60;;;18.50;99.90;;;;;;4969953;28;20492;-68
2022/08/18 02:35:05;;;;;;;14.05;9.98;;;18.50;99.90;;;;;;4968605;28;20123;-68
2022/08/18 02:37:33;;;;;;;15.68;10.52;;;18.40;99.90;;;;;;4974058;28;20054;-68
2022/08/18 02:39:58;;;;;;;18.60;10.73;;;18.40;99.90;;;;;;4948094;28;20046;-69
2022/08/18 02:42:24;;;;;;;23.75;11.90;;;18.50;99.90;;;;;;4968968;28;20050;-68
2022/08/18 02:44:50;;;;;;;17.95;11.07;;;18.40;99.90;;;;;;4973444;28;20054;-68
2022/08/18 02:47:21;;;;;;;16.70;11.25;;;18.50;99.90;;;;;;4964327;28;20050;-68
2022/08/18 02:49:47;;;;;;;19.92;12.23;;;18.50;99.90;;;;;;4973772;28;20121;-68
2022/08/18 02:52:13;;;;;;;19.73;13.10;;;18.40;99.90;;;;;;4970110;28;20142;-68
2022/08/18 02:54:39;;;;;;;19.80;13.18;;;18.50;99.90;;;;;;4973369;28;20403;-68
2022/08/18 02:57:07;;;;;;;21.02;13.75;;;18.50;99.90;;;;;;4949088;28;20485;-68
2022/08/18 02:59:33;;;;;;;22.20;14.23;;;18.50;99.90;;;;;;4965820;28;20047;-68
2022/08/18 03:01:59;;;;;;;18.85;14.40;;;18.50;99.90;;;;;;4964501;28;20051;-68
2022/08/18 03:04:28;;;;;;;18.40;14.25;;;18.50;99.90;;;;;;4970836;28;20070;-68
2022/08/18 03:06:54;;;;;;;24.92;13.85;;;18.50;99.90;;;;;;4964550;28;20131;-68
2022/08/18 03:09:20;;;;;;;22.85;14.18;;;18.50;99.90;;;;;;4965080;28;20050;-68
2022/08/18 03:11:46;;;;;;;22.50;14.23;;;18.40;99.90;;;;;;4960679;28;20101;-68
2022/08/18 03:14:12;;;;;;;20.52;13.48;;;18.50;99.90;;;;;;4978429;28;20070;-68
2022/08/18 03:16:40;;;;;;;19.02;13.82;;;18.50;99.90;;;;;;4969862;28;20054;-68
2022/08/18 03:19:06;;;;;;;18.15;13.43;;;18.50;99.90;;;;;;4939758;28;20050;-69
2022/08/18 03:21:36;;;;;;;22.08;14.13;;;18.50;99.90;;;;;;4968533;28;20046;-68
2022/08/18 03:24:02;;;;;;;19.83;13.68;;;18.50;99.90;;;;;;4956679;28;20129;-68
2022/08/18 03:26:29;;;;;;;23.73;13.90;;;18.50;99.90;;;;;;4954802;28;20061;-68
2022/08/18 03:28:55;;;;;;;25.02;13.80;;;18.50;99.90;;;;;;4970333;28;20070;-68
2022/08/18 03:31:24;;;;;;;20.52;12.90;;;18.50;99.90;;;;;;4970065;28;20047;-68
2022/08/18 03:33:51;;;;;;;22.52;13.60;;;18.50;99.90;;;;;;4969845;28;20112;-68
2022/08/18 03:36:20;;;;;;;19.08;11.35;;;18.50;99.90;;;;;;4934256;28;20111;-68
2022/08/18 03:38:47;;;;;;;20.60;12.35;;;18.50;99.90;;;;;;4956366;28;20438;-68
2022/08/18 03:41:15;;;;;;;22.58;12.48;;;18.50;99.90;;;;;;4985842;28;20363;-68
2022/08/18 03:43:41;;;;;;;21.40;12.35;;;18.50;99.90;;;;;;4973480;28;20105;-68
2022/08/18 03:46:09;;;;;;;18.88;11.93;;;18.50;99.90;;;;;;4966501;28;20047;-68
2022/08/18 03:48:39;;;;;;;15.85;11.80;;;18.50;99.90;;;;;;4988786;28;20055;-68
2022/08/18 03:51:08;;;;;;;21.42;11.75;;;18.50;99.90;;;;;;4971317;28;20505;-68
2022/08/18 03:53:35;;;;;;;19.50;12.05;;;18.50;99.90;;;;;;4972143;28;20158;-68
2022/08/18 03:56:05;;;;;;;17.38;11.77;;;18.50;99.90;;;;;;4972513;28;20054;-68
2022/08/18 03:58:30;;;;;;;19.33;11.98;;;18.50;99.90;;;;;;4953501;28;20109;-68
2022/08/18 04:00:56;;;;;;;17.70;11.35;;;18.50;99.90;;;;;;4970500;28;20442;-68
2022/08/18 04:03:22;;;;;;;20.55;11.93;;;18.50;99.90;;;;;;4947420;28;20047;-68
2022/08/18 04:05:47;;;;;;;17.88;10.90;;;18.50;99.90;;;;;;4968989;28;20077;-68
2022/08/18 04:08:13;;;;;;;17.60;10.85;;;18.50;99.90;;;;;;4972219;28;20794;-68
2022/08/18 04:10:38;;;;;;;20.98;11.05;;;18.40;99.90;;;;;;4972174;28;20057;-68
2022/08/18 04:13:04;;;;;;;17.33;11.10;;;18.40;99.90;;;;;;4969910;28;20039;-68
2022/08/18 04:15:31;;;;;;;21.90;11.48;;;18.50;99.90;;;;;;4974552;28;20059;-68
2022/08/18 04:18:03;;;;;;;20.40;11.40;;;18.50;99.90;;;;;;4973463;28;20061;-68
2022/08/18 04:20:31;;;;;;;20.92;12.02;;;18.40;99.90;;;;;;4977617;28;20051;-68
2022/08/18 04:22:57;;;;;;;18.73;11.00;;;18.50;99.90;;;;;;4975193;28;20121;-68
2022/08/18 04:25:22;;;;;;;20.00;12.23;;;18.40;99.90;;;;;;4959088;28;20093;-68
2022/08/18 04:27:48;;;;;;;20.95;12.23;;;18.40;99.90;;;;;;4975370;28;20058;-68
2022/08/18 04:30:14;;;;;;;22.48;12.63;;;18.50;99.90;;;;;;4973656;28;20054;-68
2022/08/18 04:32:39;;;;;;;24.63;12.10;;;18.40;99.90;;;;;;4976770;28;20077;-68
2022/08/18 04:35:06;;;;;;;17.63;11.98;;;18.40;99.90;;;;;;4974957;28;20067;-68
2022/08/18 04:37:31;;;;;;;26.58;13.07;;;18.40;99.90;;;;;;4976396;28;20502;-68
2022/08/18 04:39:58;;;;;;;21.73;12.98;;;18.30;99.90;;;;;;4972773;28;20051;-68
2022/08/18 04:42:24;;;;;;;20.23;11.80;;;18.40;99.90;;;;;;4957994;28;20074;-68
2022/08/18 04:44:50;;;;;;;23.30;12.02;;;18.30;99.90;;;;;;4975956;28;20055;-68
2022/08/18 04:47:16;;;;;;;22.42;13.40;;;18.30;99.90;;;;;;4975183;28;20406;-68
2022/08/18 04:49:43;;;;;;;21.45;12.77;;;18.30;99.90;;;;;;4976200;28;20129;-68
2022/08/18 04:54:53;;;;;;;19.55;12.65;;;18.30;99.90;;;;;;4969734;28;20451;-68
2022/08/18 04:57:20;;;;;;;24.52;12.65;;;18.40;99.90;;;;;;4963639;28;20102;-68
2022/08/18 04:59:49;;;;;;;21.15;12.07;;;18.30;99.90;;;;;;4962174;28;20082;-68
2022/08/18 05:02:15;;;;;;;21.67;12.40;;;18.50;99.90;;;;;;4949286;28;20046;-68
2022/08/18 05:04:45;;;;;;;18.85;12.30;;;18.30;99.90;;;;;;4968608;28;20066;-68
2022/08/18 05:07:15;;;;;;;18.38;12.65;;;18.30;99.90;;;;;;4971252;28;20090;-68
2022/08/18 05:09:41;;;;;;;17.80;12.10;;;18.30;99.90;;;;;;4953862;28;20110;-68
2022/08/18 05:12:11;;;;;;;20.45;12.23;;;18.30;99.90;;;;;;4960820;28;20050;-68
2022/08/18 05:14:36;;;;;;;20.60;11.88;;;18.30;99.90;;;;;;4965858;28;20110;-68
2022/08/18 05:17:03;;;;;;;16.50;11.73;;;18.50;99.90;;;;;;4961538;28;20055;-68
2022/08/18 05:19:30;;;;;;;22.10;12.25;;;18.30;99.90;;;;;;4969152;28;20057;-68
2022/08/18 05:21:58;;;;;;;17.25;10.85;;;18.30;99.90;;;;;;4937109;28;20123;-67
2022/08/18 05:24:26;;;;;;;18.98;11.98;;;18.30;99.90;;;;;;4951222;28;20122;-67
2022/08/18 05:26:52;;;;;;;19.10;11.32;;;18.30;99.90;;;;;;4967920;28;20098;-67
2022/08/18 05:29:20;;;;;;;19.95;12.15;;;18.30;99.90;;;;;;4959674;28;20043;-67
2022/08/18 05:31:50;;;;;;;21.77;11.80;;;18.30;99.90;;;;;;4967524;28;20102;-67
2022/08/18 05:34:18;;;;;;;16.95;11.07;;;18.30;99.90;;;;;;4955799;28;20043;-67
2022/08/18 05:36:50;;;;;;;19.05;11.20;;;18.30;99.90;;;;;;4950985;29;20468;-67
2022/08/18 05:39:37;;;;;;;18.27;11.80;;;18.30;99.90;;;;;;4954811;28;20075;-67
2022/08/18 05:42:09;;;;;;;14.80;11.35;;;18.30;99.90;;;;;;4947651;28;20408;-66
2022/08/18 05:44:40;;;;;;;14.13;10.15;;;18.30;99.90;;;;;;4956075;28;20039;-67
2022/08/18 05:47:13;;;;;;;19.27;12.27;;;18.30;99.90;;;;;;4956843;28;20039;-67
2022/08/18 05:49:42;;;;;;;19.65;12.20;;;18.40;99.90;;;;;;4948077;29;20132;-67
2022/08/18 05:52:13;;;;;;;20.52;12.88;;;18.40;99.90;;;;;;4944616;28;20068;-67
2022/08/18 05:57:32;;;;;;;21.65;12.88;;;18.40;99.90;;;;;;4976891;28;20138;-67
2022/08/18 05:59:58;;;;;;;19.02;13.40;;;18.40;99.90;;;;;;4960843;28;20051;-67
2022/08/18 06:02:33;;;;;;;16.73;12.20;;;18.50;99.90;;;;;;4958480;28;20054;-67
2022/08/18 06:05:19;;;;;;;21.23;12.10;;;18.50;99.90;;;;;;4958361;28;20620;-67
2022/08/18 06:07:53;;;;;;;20.00;13.40;;;18.50;99.90;;;;;;4955441;28;20121;-67
2022/08/18 06:10:19;;;;;;;19.40;13.52;;;18.60;99.90;;;;;;4975308;28;20054;-67
2022/08/18 06:12:50;;;;;;;19.92;12.93;;;18.60;99.90;;;;;;4972668;28;20051;-67
2022/08/18 06:15:19;;;;;;;17.88;12.55;;;18.60;99.90;;;;;;4974165;28;20085;-68
2022/08/18 06:18:07;;;;;;;16.95;12.75;;;18.70;99.90;;;;;;4975329;28;20078;-68
2022/08/18 06:21:01;;;;;;;16.00;12.77;;;18.80;99.90;;;;;;4962280;28;20083;-67
2022/08/18 06:23:39;;;;;;;18.10;12.77;;;18.90;99.90;;;;;;4938307;29;20058;-67
2022/08/18 06:26:23;;;;;;;16.65;12.13;;;18.90;99.90;;;;;;4955832;29;20126;-68
2022/08/18 06:28:51;;;;;;;17.10;12.40;;;19.00;99.90;;;;;;4979413;28;20070;-68
2022/08/18 06:31:31;;;;;;;15.77;12.15;;;19.00;99.90;;;;;;4974720;28;20054;-68
2022/08/18 06:34:20;;;;;;;13.32;11.88;;;19.00;99.90;;;;;;4974330;28;20063;-68
2022/08/18 06:36:53;;;;;;;17.25;11.52;;;19.10;99.90;;;;;;4953291;28;20043;-68
2022/08/18 06:39:30;;;;;;;17.50;10.73;;;19.10;99.90;;;;;;4955703;29;20059;-68
2022/08/18 06:41:56;;;;;;;12.15;9.93;;;19.10;99.90;;;;;;4956034;28;20055;-68
2022/08/18 06:44:31;;;;;;;17.42;10.40;;;19.30;99.90;;;;;;4941966;28;20128;-68
2022/08/18 06:47:11;;;;;;;13.30;9.65;;;19.30;99.90;;;;;;4956297;28;20051;-68
2022/08/18 06:49:56;;;;;;;11.32;8.57;;;19.50;99.90;;;;;;4974509;28;20486;-67
2022/08/18 06:52:29;;;;;;;11.55;8.02;;;19.40;99.90;;;;;;4968255;28;20063;-67
2022/08/18 06:55:06;;;;;;;12.82;8.38;;;19.50;99.90;;;;;;4969516;28;20043;-67
2022/08/18 06:57:35;;;;;;;11.48;7.75;;;19.50;99.90;;;;;;4943947;29;20055;-67
2022/08/18 07:00:26;;;;;;;13.32;8.80;;;19.50;99.90;;;;;;4959612;28;20447;-68
2022/08/18 07:03:13;;;;;;;9.70;7.13;;;19.50;99.90;;;;;;4952223;28;20116;-67
2022/08/18 07:06:12;;;;;;;9.93;7.90;;;19.50;99.90;;;;;;4943672;29;20055;-68
2022/08/18 07:08:41;;;;;;;10.75;8.30;;;19.50;99.90;;;;;;4936627;29;20101;-68
2022/08/18 07:11:17;;;;;;;11.70;8.65;;;19.50;99.90;;;;;;4934835;29;20059;-68
2022/08/18 07:13:45;;;;;;;11.45;8.30;;;19.60;99.90;;;;;;4936054;29;20063;-68
2022/08/18 07:16:22;;;;;;;10.70;8.00;;;19.80;99.90;;;;;;4966991;28;20170;-68
2022/08/18 07:18:50;;;;;;;9.30;7.38;;;19.90;99.90;;;;;;4952186;29;20052;-68
2022/08/18 07:21:33;;;;;;;10.07;6.63;;;20.00;99.90;;;;;;4948613;29;20047;-68
2022/08/18 07:24:04;;;;;;;8.27;6.18;;;20.10;99.90;;;;;;4951206;29;20062;-67
2022/08/18 07:26:50;;;;;;;7.00;6.15;;;20.10;99.90;;;;;;4954927;28;20062;-68
2022/08/18 07:29:15;;;;;;;6.80;6.18;;;20.00;99.90;;;;;;4954543;28;20194;-68
2022/08/18 07:31:48;;;;;;;7.20;6.43;;;20.00;99.90;;;;;;4953399;29;20118;-68
2022/08/18 07:34:32;;;;;;;8.02;6.68;;;20.10;99.90;;;;;;4969666;28;20047;-68
2022/08/18 07:37:20;;;;;;;6.35;5.72;;;20.10;99.90;;;;;;4949906;29;20078;-67
2022/08/18 07:40:00;;;;;;;5.65;5.15;;;20.10;99.90;;;;;;4953255;29;20385;-68
2022/08/18 07:42:40;;;;;;;6.45;5.03;;;20.00;99.90;;;;;;4951946;28;20058;-68
2022/08/18 07:45:22;;;;;;;6.70;4.60;;;20.00;99.90;;;;;;4947924;29;20464;-69
2022/08/18 07:48:15;;;;;;;6.83;5.27;;;19.90;99.90;;;;;;4953150;28;20082;-67
2022/08/18 07:51:14;;;;;;;5.03;4.53;;;19.80;99.90;;;;;;4958372;29;20346;-68
2022/08/18 07:53:58;;;;;;;5.38;4.50;;;19.80;99.90;;;;;;4974858;28;20153;-68
2022/08/18 07:56:54;;;;;;;5.93;4.22;;;19.80;99.90;;;;;;4969235;28;20066;-68
2022/08/18 07:59:38;;;;;;;4.53;4.13;;;19.80;99.90;;;;;;4957482;28;20058;-68
2022/08/18 08:02:34;;;;;;;4.45;4.03;;;19.80;99.90;;;;;;4949097;29;20099;-67
2022/08/18 08:05:13;;;;;;;6.15;4.15;;;20.00;99.90;;;;;;4958772;28;20413;-68
2022/08/18 08:07:54;;;;;;;5.18;4.00;;;20.20;99.90;;;;;;4972627;28;20502;-68
2022/08/18 08:10:35;;;;;;;5.20;4.45;;;20.30;99.90;;;;;;4974469;28;20051;-67
2022/08/18 08:13:03;;;;;;;5.53;3.80;;;20.30;99.90;;;;;;4959880;28;20496;-67
2022/08/18 08:15:29;;;;;;;7.60;4.05;;;20.30;99.90;;;;;;4942626;29;20399;-67
2022/08/18 08:18:11;;;;;;;6.82;4.05;;;20.40;99.90;;;;;;4954783;29;20131;-68
2022/08/18 08:20:41;;;;;;;5.30;4.00;;;20.40;99.90;;;;;;4974209;28;20069;-68
2022/08/18 08:23:38;;;;;;;7.45;4.40;;;20.40;99.90;;;;;;4972262;28;20047;-68
2022/08/18 08:26:10;;;;;;;5.13;3.90;;;20.50;99.90;;;;;;4950450;29;20048;-68
2022/08/18 08:28:49;;;;;;;7.72;4.20;;;20.50;99.90;;;;;;4952766;29;20047;-68
2022/08/18 08:31:47;;;;;;;4.18;3.63;;;20.60;99.90;;;;;;4959199;28;20082;-69
2022/08/18 08:34:31;;;;;;;4.32;3.08;;;20.60;99.90;;;;;;4950224;29;20497;-67
2022/08/18 08:37:03;;;;;;;3.80;3.10;;;20.60;99.90;;;;;;4951287;28;20126;-68
2022/08/18 08:39:31;;;;;;;;;;;20.50;99.90;;;;;;4954211;28;20043;-68
2022/08/18 08:42:06;;;;;;;3.65;2.55;;;20.40;99.90;;;;;;4957462;29;20026;-68
2022/08/18 08:44:41;;;;;;;4.68;2.97;;;20.30;99.90;;;;;;4957967;29;20055;-68
2022/08/18 08:47:14;;;;;;;4.45;2.70;;;20.30;99.90;;;;;;4940330;29;20061;-70
2022/08/18 08:49:56;;;;;;;4.72;2.65;;;20.20;99.90;;;;;;4957867;29;20133;-68
2022/08/18 08:52:40;;;;;;;5.90;3.40;;;20.30;99.90;;;;;;4966294;28;20063;-68
2022/08/18 08:55:15;;;;;;;6.80;3.10;;;20.20;99.90;;;;;;4958439;28;20055;-68
2022/08/18 08:58:29;;;;;;;6.40;3.10;;;20.30;99.90;;;;;;4959946;28;20099;-69
2022/08/18 09:00:56;;;;;;;7.80;3.10;;;20.30;99.90;;;;;;4912704;29;20079;-68
2022/08/18 09:03:30;;;;;;;9.20;3.47;;;20.30;99.90;;;;;;4954370;29;20496;-69
2022/08/18 09:05:59;;;;;;;9.52;3.35;;;20.30;99.90;;;;;;4982212;28;20149;-68
2022/08/18 09:08:50;;;;;;;7.55;3.45;;;20.30;99.90;;;;;;4954350;29;20057;-69
2022/08/18 09:11:27;;;;;;;6.70;3.72;;;20.20;99.90;;;;;;4957239;29;20134;-68
2022/08/18 09:14:15;;;;;;;7.72;3.20;;;20.20;99.90;;;;;;4951594;29;20051;-69
2022/08/18 09:17:24;;;;;;;7.95;3.42;;;20.30;99.90;;;;;;4949755;29;20134;-67
2022/08/18 09:20:09;;;;;;;6.47;3.47;;;20.20;99.90;;;;;;4956414;28;20066;-68
2022/08/18 09:22:44;;;;;;;9.75;3.50;;;20.30;99.90;;;;;;4944843;29;20526;-68
2022/08/18 09:25:38;;;;;;;7.10;3.90;;;20.40;99.90;;;;;;4985532;28;20150;-68
2022/08/18 09:28:23;;;;;;;5.15;3.53;;;20.50;99.90;;;;;;4983908;28;20050;-68
2022/08/18 09:31:01;;;;;;;7.43;3.67;;;20.80;99.90;;;;;;4951305;29;20070;-69
2022/08/18 09:33:39;;;;;;;7.82;4.15;;;21.10;99.90;;;;;;4953605;29;20090;-68
2022/08/18 09:36:10;;;;;;;7.32;3.20;;;21.20;99.90;;;;;;4948423;29;20531;-69
2022/08/18 09:41:44;;;;;;;8.05;3.38;;;21.60;99.90;;;;;;4992660;28;20380;-69
2022/08/18 09:44:34;;;;;;;8.88;3.42;;;21.80;99.90;;;;;;4976071;28;20059;-69
2022/08/18 09:47:00;;;;;;;6.32;3.35;;;21.90;99.90;;;;;;4983894;28;20051;-68
2022/08/18 09:49:26;;;;;;;8.32;3.30;;;22.10;99.90;;;;;;4951386;29;20043;-68
2022/08/18 09:51:53;;;;;;;4.78;3.03;;;22.10;99.90;;;;;;4940727;29;20151;-69
2022/08/18 09:54:23;;;;;;;4.43;2.47;;;22.30;99.90;;;;;;4951289;29;20047;-69
2022/08/18 09:56:48;;;;;;;3.80;2.53;;;22.30;99.90;;;;;;4950715;29;20052;-69
2022/08/18 09:59:32;;;;;;;4.10;2.42;;;22.30;99.90;;;;;;4953822;29;20062;-69
2022/08/18 10:02:05;;;;;;;4.57;2.28;;;22.30;99.90;;;;;;4953597;29;20399;-68
2022/08/18 10:04:51;;;;;;;3.28;1.60;;;22.30;99.90;;;;;;4952405;29;20055;-69
2022/08/18 10:07:38;;;;;;;2.55;1.65;;;22.20;99.90;;;;;;4949568;29;20087;-68
2022/08/18 10:10:31;;;;;;;5.70;2.47;;;22.30;99.90;;;;;;4955334;28;20150;-68
2022/08/18 10:13:19;;;;;;;2.60;2.05;;;22.30;99.90;;;;;;4951566;28;20079;-69
2022/08/18 10:16:05;;;;;;;5.88;3.20;;;22.20;99.90;;;;;;4955644;29;20051;-68
2022/08/18 10:18:40;;;;;;;2.97;1.83;;;22.10;99.90;;;;;;4956195;28;20059;-68
2022/08/18 10:21:26;;;;;;;5.07;2.00;;;22.10;99.90;;;;;;4952921;28;20066;-68
2022/08/18 10:24:09;;;;;;;6.10;2.20;;;22.10;99.90;;;;;;4982506;28;20059;-68
2022/08/18 10:26:37;;;;;;;2.72;1.90;;;22.20;99.90;;;;;;4955158;28;20042;-69
2022/08/18 10:29:27;;;;;;;3.92;1.92;;;22.30;99.90;;;;;;4950660;29;20043;-68
2022/08/18 10:31:55;;;;;;;3.80;2.05;;;22.30;99.90;;;;;;4951641;28;20059;-68
2022/08/18 10:34:39;;;;;;;3.88;1.80;;;22.30;99.90;;;;;;4950500;28;20444;-68
2022/08/18 10:37:30;;;;;;;3.97;1.80;;;22.30;99.90;;;;;;4942232;29;20051;-69
2022/08/18 10:40:02;;;;;;;4.50;1.70;;;22.50;99.90;;;;;;4948262;29;20071;-69
2022/08/18 10:42:30;;;;;;;1.60;1.50;;;22.80;99.90;;;;;;4946304;29;20062;-69
2022/08/18 10:45:11;;;;;;;4.20;1.52;;;23.00;99.90;;;;;;4950953;28;20150;-68
2022/08/18 10:47:37;;;;;;;3.40;1.60;;;23.10;99.90;;;;;;4948043;29;20093;-68
2022/08/18 10:50:08;;;;;;;3.33;1.20;;;23.20;99.90;;;;;;4947668;29;20499;-69
2022/08/18 10:53:11;;;;;;;2.80;1.57;;;23.60;99.90;;;;;;4952644;28;20066;-68
2022/08/18 10:55:55;;;;;;;2.10;1.90;;;23.70;99.90;;;;;;4951083;29;20059;-68
2022/08/18 10:58:41;;;;;;;3.05;1.85;;;23.70;99.90;;;;;;4952921;29;20047;-68
2022/08/18 11:01:24;;;;;;;1.77;1.40;;;23.60;99.90;;;;;;4981764;28;20348;-68
2022/08/18 11:04:02;;;;;;;2.17;1.70;;;23.60;99.90;;;;;;4954340;29;20114;-68
2022/08/18 11:06:35;;;;;;;2.15;1.20;;;23.80;99.90;;;;;;4944335;29;20059;-69
2022/08/18 11:09:01;;;;;;;2.35;1.60;;;24.00;99.90;;;;;;4953708;29;20106;-69
2022/08/18 11:11:50;;;;;;;3.13;1.40;;;24.00;99.90;;;;;;4954928;29;20492;-69
2022/08/18 11:14:53;;;;;;;2.15;1.42;;;24.00;99.90;;;;;;4954805;29;20074;-69
2022/08/18 11:17:34;;;;;;;3.40;1.30;;;23.90;99.90;;;;;;4952571;29;20543;-69
2022/08/18 11:20:04;;;;;;;3.75;1.73;;;23.80;99.90;;;;;;4953470;28;20066;-69
2022/08/18 11:22:34;;;;;;;3.70;1.52;;;23.70;99.90;;;;;;4944786;29;20551;-68
2022/08/18 11:25:01;;;;;;;2.30;1.50;;;23.70;99.90;;;;;;4955060;29;20436;-68
2022/08/18 11:27:30;;;;;;;2.08;1.50;;;23.50;99.90;;;;;;4929257;29;20051;-68
2022/08/18 11:30:01;;;;;;;3.30;1.45;;;23.40;99.90;;;;;;4955410;29;20372;-68
2022/08/18 11:32:36;;;;;;;2.17;1.50;;;23.40;99.90;;;;;;4952315;28;20059;-68
2022/08/18 11:35:09;;;;;;;3.55;1.63;;;23.30;99.90;;;;;;4954927;28;20059;-69
2022/08/18 11:37:40;;;;;;;2.72;1.70;;;23.30;99.90;;;;;;4952760;29;20051;-68
2022/08/18 11:40:38;;;;;;;2.72;1.50;;;23.30;99.90;;;;;;4983021;28;20377;-68
2022/08/18 11:43:22;;;;;;;1.77;1.48;;;23.50;99.90;;;;;;4952143;28;20117;-68
2022/08/18 11:46:09;;;;;;;2.33;1.55;;;23.60;99.90;;;;;;4954446;29;20514;-68
2022/08/18 11:48:37;;;;;;;3.50;1.60;;;23.60;99.90;;;;;;4946422;29;20087;-68
2022/08/18 11:51:16;;;;;;;3.92;1.60;;;23.70;99.90;;;;;;4947236;29;20051;-69
2022/08/18 11:53:47;;;;;;;1.60;1.50;;;23.70;99.90;;;;;;4947707;29;20062;-68
2022/08/18 11:56:20;;;;;;;2.47;1.42;;;23.70;99.90;;;;;;4953424;29;20055;-68
2022/08/18 11:59:04;;;;;;;3.67;1.50;;;23.70;99.90;;;;;;4955440;29;20424;-68
2022/08/18 12:01:38;;;;;;;2.03;1.20;;;23.70;99.90;;;;;;4953583;29;20055;-69
2022/08/18 12:04:12;;;;;;;2.55;1.30;;;23.70;99.90;;;;;;4954211;29;20051;-68
2022/08/18 12:06:51;;;;;;;1.83;1.30;;;23.70;99.90;;;;;;4946265;29;20058;-67
2022/08/18 12:09:30;;;;;;;2.15;1.20;;;23.60;99.90;;;;;;4953517;29;20055;-68
2022/08/18 12:12:01;;;;;;;3.42;1.60;;;23.50;99.90;;;;;;4954430;28;20055;-68
2022/08/18 12:14:30;;;;;;;2.88;1.35;;;23.40;99.90;;;;;;4954498;29;20090;-69
2022/08/18 12:16:56;;;;;;;2.38;1.40;;;23.40;99.90;;;;;;4980993;28;20063;-70
2022/08/18 12:19:22;;;;;;;2.38;1.63;;;23.60;99.90;;;;;;4985217;28;20392;-69
2022/08/18 12:21:50;;;;;;;3.40;1.48;;;23.70;99.90;;;;;;4947564;29;20488;-68
2022/08/18 12:24:21;;;;;;;3.47;2.10;;;23.60;99.90;;;;;;4952953;28;20055;-69
2022/08/18 12:26:48;;;;;;;3.33;1.52;;;23.60;99.90;;;;;;4945563;29;20507;-69
2022/08/18 12:29:16;;;;;;;2.70;1.70;;;23.50;99.90;;;;;;4952291;29;20043;-69
2022/08/18 12:31:42;;;;;;;2.90;1.48;;;23.50;99.90;;;;;;4941921;29;20460;-68
2022/08/18 12:34:07;;;;;;;3.00;1.85;;;23.40;99.90;;;;;;4951849;28;20075;-69
2022/08/18 12:36:34;;;;;;;2.10;1.50;;;23.40;99.90;;;;;;4953432;29;20055;-68
2022/08/18 12:39:00;;;;;;;3.70;1.70;;;23.40;99.90;;;;;;4951483;28;20071;-68
2022/08/18 12:41:25;;;;;;;2.60;1.52;;;23.50;99.90;;;;;;4955354;29;20070;-69
2022/08/18 12:43:54;;;;;;;2.15;1.50;;;23.50;99.90;;;;;;4955859;29;20051;-69
2022/08/18 12:46:20;;;;;;;2.42;1.70;;;23.40;99.90;;;;;;4976574;28;20062;-69
2022/08/18 12:48:46;;;;;;;3.45;1.63;;;23.30;99.90;;;;;;4941300;28;20424;-70
2022/08/18 12:51:12;;;;;;;2.60;1.40;;;23.20;99.90;;;;;;4934832;28;20056;-70
2022/08/18 12:53:39;;;;;;;1.90;1.40;;;23.20;99.90;;;;;;4936421;29;20481;-70
2022/08/18 12:56:21;;;;;;;2.22;1.40;;;23.20;99.90;;;;;;4968546;28;20058;-70
2022/08/18 12:58:48;;;;;;;3.22;1.77;;;23.30;99.90;;;;;;4955745;29;20487;-70
2022/08/18 13:01:18;;;;;;;4.43;1.60;;;23.50;99.90;;;;;;4951338;29;20105;-69
2022/08/18 13:03:45;;;;;;;4.38;2.00;;;23.70;99.90;;;;;;4937020;29;20043;-70
2022/08/18 13:06:12;;;;;;;3.22;1.75;;;23.90;99.90;;;;;;4956878;29;20055;-70
2022/08/18 13:08:38;;;;;;;2.67;1.60;;;24.10;99.90;;;;;;4968165;28;20056;-70
2022/08/18 13:11:09;;;;;;;3.67;1.60;;;24.30;99.90;;;;;;4936800;29;20065;-69
2022/08/18 13:13:35;;;;;;;1.98;1.48;;;24.50;99.90;;;;;;4939575;29;20504;-68
2022/08/18 13:16:01;;;;;;;2.90;1.55;;;24.40;99.90;;;;;;4908864;29;20048;-69
2022/08/18 13:18:27;;;;;;;1.73;1.38;;;24.30;99.90;;;;;;4951249;29;20452;-68
2022/08/18 13:20:53;;;;;;;3.45;1.77;;;24.10;99.90;;;;;;4952079;29;20047;-69